Terminal Aerodrome Forecast
Issued by NWS

Home | Current Version | Previous Version | Text Only | Print | Product List | Glossary On
Versions: 1 2 3 4 5 6 7 8 9 10 11 12 13 14 15
000
FTUS42 KMLB 062323
TAFTIX
TAF
KTIX 062323Z 0700/0724 36015G22KT P6SM OVC008
     FM070600 01012G19KT P6SM OVC004
     FM071400 02013G21KT P6SM BKN008 OVC015
     FM072000 04011G17KT P6SM SCT010 BKN025=

USA.gov is the U.S. government's official web portal to all federal, state and local government web resources and services.